createdAt,value
2022-08-23T00:01:40.278Z,20.51
2022-08-23T00:04:11.530Z,20.66
2022-08-23T00:06:41.053Z,20.73
2022-08-23T00:09:10.528Z,20.72
2022-08-23T00:11:40.725Z,20.79
2022-08-23T00:14:13.967Z,20.90
2022-08-23T00:16:42.183Z,20.99
2022-08-23T00:19:13.453Z,21.10
2022-08-23T00:21:41.730Z,21.10
2022-08-23T00:24:12.338Z,20.99
2022-08-23T00:26:53.950Z,20.97
2022-08-23T00:29:24.723Z,21.04
2022-08-23T00:31:53.678Z,21.15
2022-08-23T00:34:22.536Z,21.01
2022-08-23T00:36:50.881Z,20.29
2022-08-23T00:39:20.260Z,19.83
2022-08-23T00:41:50.433Z,19.61
2022-08-23T00:44:45.001Z,19.61
2022-08-23T00:47:33.335Z,19.77
2022-08-23T00:50:19.160Z,19.70
2022-08-23T00:52:59.539Z,19.74
2022-08-23T00:55:29.044Z,19.72
2022-08-23T00:57:57.947Z,19.72
2022-08-23T01:00:29.294Z,19.63
2022-08-23T01:02:58.000Z,19.56
2022-08-23T01:05:38.770Z,19.51
2022-08-23T01:08:07.457Z,19.48
2022-08-23T01:10:40.576Z,19.40
2022-08-23T01:13:15.285Z,19.78
2022-08-23T01:15:49.808Z,19.39
2022-08-23T01:18:22.168Z,19.30
2022-08-23T01:21:06.445Z,19.31
2022-08-23T01:23:44.537Z,19.49
2022-08-23T01:26:14.239Z,19.50
2022-08-23T01:28:45.719Z,19.55
2022-08-23T01:31:16.336Z,19.38
2022-08-23T01:33:47.504Z,19.16
2022-08-23T01:36:17.259Z,18.79
2022-08-23T01:38:47.659Z,18.58
2022-08-23T01:41:15.612Z,18.44
2022-08-23T01:43:43.646Z,18.67
2022-08-23T01:46:15.337Z,18.69
2022-08-23T01:48:45.556Z,18.74
2022-08-23T01:51:16.497Z,18.78
2022-08-23T01:53:46.598Z,18.69
2022-08-23T01:56:19.885Z,18.50
2022-08-23T01:58:57.451Z,18.53
2022-08-23T02:01:32.606Z,18.66
2022-08-23T02:04:04.722Z,18.66
2022-08-23T02:06:33.306Z,18.61
2022-08-23T02:09:05.695Z,18.47
2022-08-23T02:11:48.090Z,18.44
2022-08-23T02:14:18.882Z,18.43
2022-08-23T02:17:04.520Z,18.35
2022-08-23T02:19:37.738Z,18.30
2022-08-23T02:22:08.240Z,18.31
2022-08-23T02:24:40.113Z,18.39
2022-08-23T02:27:10.415Z,18.53
2022-08-23T02:29:41.629Z,18.69
2022-08-23T02:32:14.886Z,18.74
2022-08-23T02:34:45.355Z,18.75
2022-08-23T02:37:34.169Z,18.74
2022-08-23T02:40:02.684Z,18.76
2022-08-23T02:42:33.296Z,18.71
2022-08-23T02:45:02.592Z,18.53
2022-08-23T02:47:32.902Z,18.58
2022-08-23T02:50:16.640Z,18.59
2022-08-23T02:52:45.870Z,18.53
2022-08-23T02:55:15.402Z,18.51
2022-08-23T02:57:44.965Z,18.61
2022-08-23T03:00:16.373Z,18.63
2022-08-23T03:02:45.375Z,18.57
2022-08-23T03:05:15.166Z,18.46
2022-08-23T03:07:43.226Z,18.30
2022-08-23T03:10:12.928Z,18.20
2022-08-23T03:12:48.907Z,18.19
2022-08-23T03:15:17.431Z,18.28
2022-08-23T03:17:46.225Z,18.36
2022-08-23T03:20:14.582Z,18.18
2022-08-23T03:22:48.395Z,18.11
2022-08-23T03:25:23.094Z,18.10
2022-08-23T03:28:05.639Z,18.13
2022-08-23T03:30:35.803Z,18.30
2022-08-23T03:33:05.622Z,18.27
2022-08-23T03:35:34.233Z,18.13
2022-08-23T03:38:03.599Z,18.04
2022-08-23T03:40:32.135Z,18.03
2022-08-23T03:43:01.959Z,18.23
2022-08-23T03:45:33.102Z,18.30
2022-08-23T03:48:01.991Z,18.42
2022-08-23T03:50:33.656Z,18.30
2022-08-23T03:53:01.720Z,18.33
2022-08-23T03:55:29.824Z,18.31
2022-08-23T03:57:58.583Z,18.18
2022-08-23T04:00:26.720Z,18.09
2022-08-23T04:02:56.658Z,18.00
2022-08-23T04:05:28.739Z,17.85
2022-08-23T04:08:10.353Z,17.85
2022-08-23T04:10:42.787Z,17.87
2022-08-23T04:13:11.661Z,17.93
2022-08-23T04:15:40.062Z,17.93
2022-08-23T04:18:13.970Z,17.95
2022-08-23T04:20:43.466Z,17.97
2022-08-23T04:23:12.108Z,17.88
2022-08-23T04:25:50.439Z,17.89
2022-08-23T04:28:20.439Z,17.99
2022-08-23T04:30:50.529Z,18.06
2022-08-23T04:33:21.352Z,18.08
2022-08-23T04:35:49.640Z,18.00
2022-08-23T04:38:25.091Z,17.85
2022-08-23T04:41:15.720Z,17.71
2022-08-23T04:43:46.711Z,17.69
2022-08-23T04:46:16.465Z,17.85
2022-08-23T04:48:48.637Z,17.86
2022-08-23T04:51:19.549Z,17.99
2022-08-23T04:53:57.469Z,18.13
2022-08-23T04:56:54.524Z,17.95
2022-08-23T04:59:24.773Z,17.95
2022-08-23T05:01:53.453Z,17.90
2022-08-23T05:04:22.754Z,17.87
2022-08-23T05:06:52.152Z,17.91
2022-08-23T05:09:25.037Z,17.85
2022-08-23T05:11:53.303Z,17.93
2022-08-23T05:14:22.754Z,18.13
2022-08-23T05:16:50.811Z,18.25
2022-08-23T05:19:19.300Z,18.23
2022-08-23T05:21:51.987Z,18.23
2022-08-23T05:24:28.763Z,18.22
2022-08-23T05:26:56.850Z,18.29
2022-08-23T05:29:24.829Z,18.39
2022-08-23T05:31:55.477Z,18.41
2022-08-23T05:34:26.648Z,18.63
2022-08-23T05:36:58.979Z,18.73
2022-08-23T05:39:36.691Z,18.77
2022-08-23T05:42:13.325Z,18.85
2022-08-23T05:44:41.947Z,18.70
2022-08-23T05:47:15.095Z,18.74
2022-08-23T05:50:13.244Z,18.79
2022-08-23T05:52:50.827Z,18.85
2022-08-23T05:55:21.922Z,18.90
2022-08-23T05:58:19.805Z,19.03
2022-08-23T06:00:48.012Z,19.07
2022-08-23T06:03:16.087Z,19.16
2022-08-23T06:05:44.874Z,19.24
2022-08-23T06:08:15.995Z,19.30
2022-08-23T06:10:44.130Z,19.39
2022-08-23T06:13:21.774Z,19.45
2022-08-23T06:15:52.558Z,19.50
2022-08-23T06:18:20.980Z,19.53
2022-08-23T06:20:50.031Z,19.56
2022-08-23T06:23:26.317Z,19.64
2022-08-23T06:25:54.609Z,19.68
2022-08-23T06:28:25.832Z,19.73
2022-08-23T06:30:56.893Z,19.81
2022-08-23T06:33:32.218Z,20.07
2022-08-23T06:36:20.557Z,20.12
2022-08-23T06:39:01.553Z,20.20
2022-08-23T06:41:49.626Z,20.77
2022-08-23T06:44:29.401Z,20.79
2022-08-23T06:47:21.246Z,20.75
2022-08-23T06:49:57.473Z,20.94
2022-08-23T06:52:49.107Z,20.78
2022-08-23T06:55:37.596Z,20.76
2022-08-23T06:58:28.006Z,20.83
2022-08-23T07:01:49.200Z,20.86
2022-08-23T07:04:43.585Z,20.94
2022-08-23T07:07:39.610Z,21.02
2022-08-23T07:10:15.184Z,21.04
2022-08-23T07:12:44.995Z,21.12
2022-08-23T07:15:14.778Z,21.02
2022-08-23T07:17:47.284Z,21.11
2022-08-23T07:20:15.556Z,21.19
2022-08-23T07:22:45.925Z,21.29
2022-08-23T07:25:14.810Z,21.34
2022-08-23T07:27:49.664Z,21.57
2022-08-23T07:30:21.490Z,21.84
2022-08-23T07:32:51.651Z,22.04
2022-08-23T07:35:23.884Z,21.99
2022-08-23T07:37:55.441Z,21.96
2022-08-23T07:40:24.964Z,22.10
2022-08-23T07:43:00.407Z,22.27
2022-08-23T07:45:29.927Z,22.50
2022-08-23T07:48:02.370Z,22.63
2022-08-23T07:50:35.129Z,22.78
2022-08-23T07:53:05.422Z,22.89
2022-08-23T07:55:33.669Z,23.00
2022-08-23T07:58:24.532Z,22.94
2022-08-23T08:01:16.264Z,23.03
2022-08-23T08:03:50.886Z,22.98
2022-08-23T08:06:28.864Z,23.01
2022-08-23T08:08:57.502Z,23.10
2022-08-23T08:11:32.307Z,23.36
2022-08-23T08:14:08.255Z,23.32
2022-08-23T08:16:44.634Z,23.38
2022-08-23T08:19:18.810Z,23.34
2022-08-23T08:22:14.186Z,23.38
2022-08-23T08:25:02.880Z,23.49
2022-08-23T08:27:32.394Z,23.63
2022-08-23T08:30:05.402Z,23.51
2022-08-23T08:32:33.522Z,23.50
2022-08-23T08:35:02.501Z,23.78
2022-08-23T08:37:32.051Z,23.82
2022-08-23T08:40:02.709Z,23.92
2022-08-23T08:42:56.355Z,24.54
2022-08-23T08:45:32.658Z,24.22
2022-08-23T08:48:11.351Z,24.08
2022-08-23T08:50:52.393Z,24.39
2022-08-23T08:53:26.070Z,24.40
2022-08-23T08:56:21.534Z,24.39
2022-08-23T08:59:02.652Z,24.58
2022-08-23T09:01:37.428Z,24.75
2022-08-23T09:04:08.434Z,25.09
2022-08-23T09:06:59.625Z,25.44
2022-08-23T09:09:53.265Z,25.39
2022-08-23T09:12:33.398Z,25.29
2022-08-23T09:15:20.736Z,25.29
2022-08-23T09:17:54.898Z,25.22
2022-08-23T09:20:32.960Z,25.54
2022-08-23T09:23:11.279Z,25.34
2022-08-23T09:25:41.905Z,25.42
2022-08-23T09:28:17.086Z,25.76
2022-08-23T09:30:55.628Z,25.81
2022-08-23T09:33:39.602Z,25.87
2022-08-23T09:36:17.650Z,26.02
2022-08-23T09:38:54.865Z,25.92
2022-08-23T09:41:27.663Z,26.00
2022-08-23T09:44:01.746Z,26.53
2022-08-23T09:46:35.742Z,26.71
2022-08-23T09:49:25.133Z,26.71
2022-08-23T09:51:57.151Z,27.03
2022-08-23T09:54:32.460Z,27.20
2022-08-23T09:57:04.429Z,27.35
2022-08-23T09:59:42.717Z,28.00
2022-08-23T10:02:33.485Z,28.49
2022-08-23T10:05:36.979Z,28.93
2022-08-23T10:08:10.302Z,29.12
2022-08-23T10:10:51.062Z,29.26
2022-08-23T10:13:24.343Z,29.43
2022-08-23T10:16:01.839Z,29.83
2022-08-23T10:18:44.290Z,30.03
2022-08-23T10:21:24.283Z,30.01
2022-08-23T10:24:10.573Z,29.94
2022-08-23T10:26:47.407Z,29.83
2022-08-23T10:29:42.017Z,29.75
2022-08-23T10:32:21.473Z,29.65
2022-08-23T10:35:22.703Z,29.77
2022-08-23T10:38:08.081Z,29.79
2022-08-23T10:40:43.287Z,29.76
2022-08-23T10:43:20.637Z,29.80
2022-08-23T10:45:50.479Z,29.84
2022-08-23T10:48:31.720Z,29.91
2022-08-23T10:51:03.752Z,29.74
2022-08-23T10:53:39.307Z,29.86
2022-08-23T10:56:08.210Z,29.73
2022-08-23T10:58:47.655Z,29.89
2022-08-23T11:01:21.357Z,30.02
2022-08-23T11:04:00.807Z,30.15
2022-08-23T11:06:52.623Z,30.26
2022-08-23T11:09:39.634Z,30.29
2022-08-23T11:12:22.668Z,30.27
2022-08-23T11:15:15.562Z,30.70
2022-08-23T11:18:03.798Z,30.87
2022-08-23T11:21:07.627Z,31.16
2022-08-23T11:23:46.825Z,31.46
2022-08-23T11:27:06.701Z,31.96
2022-08-23T11:29:43.703Z,32.99
2022-08-23T11:32:45.380Z,34.04
2022-08-23T11:35:40.497Z,34.80
2022-08-23T11:38:14.242Z,35.36
2022-08-23T11:41:13.562Z,36.30
2022-08-23T11:43:45.436Z,36.71
2022-08-23T11:46:30.594Z,37.26
2022-08-23T11:49:52.011Z,37.73
2022-08-23T11:52:39.049Z,37.06
2022-08-23T11:55:22.261Z,37.80
2022-08-23T11:58:02.954Z,37.79
2022-08-23T12:00:55.387Z,36.93
2022-08-23T12:03:32.492Z,37.28
2022-08-23T12:06:40.487Z,37.39
2022-08-23T12:09:14.362Z,37.95
2022-08-23T12:12:13.525Z,37.89
2022-08-23T12:14:54.868Z,37.74
2022-08-23T12:18:14.014Z,37.74
2022-08-23T12:20:48.596Z,37.90
2022-08-23T12:23:20.731Z,36.89
2022-08-23T12:26:00.796Z,37.68
2022-08-23T12:28:42.356Z,37.28
2022-08-23T12:31:21.509Z,37.40
2022-08-23T12:34:12.503Z,37.47
2022-08-23T12:36:50.184Z,38.02
2022-08-23T12:39:26.654Z,37.71
2022-08-23T12:41:59.465Z,37.59
2022-08-23T12:44:33.973Z,37.39
2022-08-23T12:47:13.153Z,36.80
2022-08-23T12:49:41.826Z,36.67
2022-08-23T12:52:13.943Z,37.15
2022-08-23T12:54:45.761Z,37.53
2022-08-23T12:57:19.299Z,36.72
2022-08-23T13:00:01.922Z,37.23
2022-08-23T13:02:51.574Z,36.86
2022-08-23T13:05:27.912Z,36.29
2022-08-23T13:07:58.025Z,36.47
2022-08-23T13:10:29.373Z,36.83
2022-08-23T13:12:57.629Z,37.01
2022-08-23T13:15:53.074Z,36.43
2022-08-23T13:18:27.350Z,36.48
2022-08-23T13:21:17.695Z,36.05
2022-08-23T13:23:48.255Z,36.25
2022-08-23T13:26:36.268Z,36.70
2022-08-23T13:29:12.185Z,37.23
2022-08-23T13:32:03.478Z,37.43
2022-08-23T13:34:46.968Z,36.59
2022-08-23T13:37:21.407Z,37.32
2022-08-23T13:39:54.354Z,36.27
2022-08-23T13:42:37.757Z,36.41
2022-08-23T13:45:16.551Z,36.74
2022-08-23T13:47:49.446Z,36.45
2022-08-23T13:50:23.628Z,35.76
2022-08-23T13:55:45.490Z,35.58
2022-08-23T13:58:16.988Z,35.68
2022-08-23T14:00:55.038Z,35.85
2022-08-23T14:03:24.770Z,35.49
2022-08-23T14:05:54.102Z,35.77
2022-08-23T14:08:23.120Z,35.56
2022-08-23T14:10:53.138Z,35.05
2022-08-23T14:13:25.012Z,34.97
2022-08-23T14:15:56.426Z,35.15
2022-08-23T14:18:25.454Z,35.45
2022-08-23T14:20:54.138Z,35.34
2022-08-23T14:23:22.131Z,35.41
2022-08-23T14:25:53.016Z,34.64
2022-08-23T14:28:20.986Z,34.74
2022-08-23T14:30:49.549Z,35.17
2022-08-23T14:33:21.625Z,34.73
2022-08-23T14:35:49.542Z,34.52
2022-08-23T14:38:18.321Z,34.70
2022-08-23T14:40:51.426Z,35.02
2022-08-23T14:43:22.601Z,35.04
2022-08-23T14:45:54.019Z,34.96
2022-08-23T14:48:23.247Z,34.91
2022-08-23T14:50:52.370Z,34.88
2022-08-23T14:53:24.548Z,34.51
2022-08-23T14:56:12.355Z,34.29
2022-08-23T14:58:45.943Z,33.82
2022-08-23T15:01:14.151Z,33.48
2022-08-23T15:03:43.076Z,33.26
2022-08-23T15:06:12.003Z,33.17
2022-08-23T15:08:41.225Z,32.92
2022-08-23T15:14:00.750Z,32.77
2022-08-23T15:16:29.555Z,32.94
2022-08-23T15:18:59.784Z,33.03
2022-08-23T15:21:28.442Z,32.61
2022-08-23T15:23:56.483Z,32.44
2022-08-23T15:26:27.028Z,32.22
2022-08-23T15:28:55.409Z,32.05
2022-08-23T15:31:24.755Z,32.06
2022-08-23T15:33:52.955Z,32.12
2022-08-23T15:36:21.140Z,32.02
2022-08-23T15:38:50.238Z,32.01
2022-08-23T15:41:19.593Z,31.97
2022-08-23T15:43:48.141Z,32.12
2022-08-23T15:46:20.799Z,31.60
2022-08-23T15:48:55.728Z,31.57
2022-08-23T15:51:24.774Z,31.54
2022-08-23T15:53:54.033Z,31.52
2022-08-23T15:56:30.510Z,31.31
2022-08-23T15:58:58.805Z,31.38
2022-08-23T16:01:30.131Z,31.65
2022-08-23T16:04:02.180Z,31.58
2022-08-23T16:06:35.806Z,31.44
2022-08-23T16:09:07.363Z,31.20
2022-08-23T16:11:36.240Z,31.26
2022-08-23T16:14:04.701Z,31.25
2022-08-23T16:16:38.091Z,31.09
2022-08-23T16:19:10.151Z,30.93
2022-08-23T16:21:38.706Z,30.88
2022-08-23T16:24:08.495Z,30.71
2022-08-23T16:26:41.920Z,30.83
2022-08-23T16:29:13.414Z,30.78
2022-08-23T16:31:43.126Z,30.78
2022-08-23T16:34:15.118Z,30.77
2022-08-23T16:36:45.480Z,30.58
2022-08-23T16:39:14.775Z,30.49
2022-08-23T16:41:43.306Z,30.70
2022-08-23T16:44:11.519Z,30.58
2022-08-23T16:46:42.695Z,30.42
2022-08-23T16:49:13.587Z,30.25
2022-08-23T16:51:41.657Z,30.18
2022-08-23T16:54:10.067Z,30.10
2022-08-23T16:56:39.554Z,30.09
2022-08-23T16:59:11.428Z,30.01
2022-08-23T17:01:50.237Z,29.97
2022-08-23T17:04:21.281Z,29.44
2022-08-23T17:06:49.402Z,29.31
2022-08-23T17:09:18.137Z,29.28
2022-08-23T17:11:47.473Z,29.06
2022-08-23T17:14:16.103Z,28.77
2022-08-23T17:16:45.046Z,28.70
2022-08-23T17:19:14.064Z,28.57
2022-08-23T17:21:44.818Z,28.53
2022-08-23T17:24:13.289Z,28.48
2022-08-23T17:26:41.318Z,28.37
2022-08-23T17:29:09.415Z,28.31
2022-08-23T17:31:37.870Z,28.23
2022-08-23T17:34:06.869Z,28.16
2022-08-23T17:36:38.676Z,28.03
2022-08-23T17:39:10.920Z,27.98
2022-08-23T17:41:43.190Z,27.87
2022-08-23T17:44:13.815Z,27.72
2022-08-23T17:46:44.296Z,27.74
2022-08-23T17:49:12.939Z,27.65
2022-08-23T17:51:41.442Z,27.59
2022-08-23T17:54:12.874Z,27.53
2022-08-23T17:56:49.828Z,27.49
2022-08-23T17:59:19.109Z,27.39
2022-08-23T18:01:47.122Z,27.33
2022-08-23T18:04:17.343Z,27.23
2022-08-23T18:06:46.386Z,27.21
2022-08-23T18:09:19.695Z,27.13
2022-08-23T18:11:47.960Z,27.07
2022-08-23T18:14:15.898Z,27.00
2022-08-23T18:16:45.596Z,26.95
2022-08-23T18:19:14.436Z,26.86
2022-08-23T18:21:44.417Z,26.81
2022-08-23T18:24:12.724Z,26.76
2022-08-23T18:26:59.942Z,26.75
2022-08-23T18:29:29.783Z,26.68
2022-08-23T18:32:00.733Z,26.70
2022-08-23T18:34:29.936Z,26.60
2022-08-23T18:36:59.431Z,26.53
2022-08-23T18:39:32.028Z,26.44
2022-08-23T18:42:03.377Z,26.39
2022-08-23T18:44:33.190Z,26.31
2022-08-23T18:47:02.973Z,26.27
2022-08-23T18:49:32.182Z,26.23
2022-08-23T18:52:01.301Z,26.30
2022-08-23T18:54:33.537Z,26.30
2022-08-23T18:57:03.715Z,26.25
2022-08-23T18:59:31.742Z,26.18
2022-08-23T19:02:06.689Z,26.16
2022-08-23T19:04:36.666Z,26.12
2022-08-23T19:07:05.090Z,26.11
2022-08-23T19:09:33.513Z,26.08
2022-08-23T19:12:03.520Z,26.08
2022-08-23T19:14:33.368Z,26.12
2022-08-23T19:17:03.484Z,26.07
2022-08-23T19:19:31.567Z,26.03
2022-08-23T19:21:59.856Z,26.00
2022-08-23T19:24:28.679Z,25.94
2022-08-23T19:26:57.705Z,25.92
2022-08-23T19:29:27.142Z,25.90
2022-08-23T19:31:55.332Z,25.81
2022-08-23T19:34:23.740Z,25.79
2022-08-23T19:37:00.587Z,25.64
2022-08-23T19:39:30.316Z,25.65
2022-08-23T19:41:58.773Z,25.40
2022-08-23T19:44:28.983Z,25.28
2022-08-23T19:46:58.231Z,25.38
2022-08-23T19:49:30.299Z,25.33
2022-08-23T19:51:59.694Z,25.36
2022-08-23T19:54:28.740Z,25.36
2022-08-23T19:57:00.263Z,25.27
2022-08-23T19:59:34.740Z,25.16
2022-08-23T20:02:03.694Z,25.07
2022-08-23T20:04:34.237Z,25.00
2022-08-23T20:07:04.305Z,24.98
2022-08-23T20:09:33.444Z,24.94
2022-08-23T20:12:03.188Z,24.93
2022-08-23T20:14:33.530Z,24.91
2022-08-23T20:17:04.525Z,24.81
2022-08-23T20:19:32.845Z,24.54
2022-08-23T20:22:16.430Z,24.47
2022-08-23T20:24:51.730Z,24.47
2022-08-23T20:27:25.472Z,24.34
2022-08-23T20:30:01.687Z,24.36
2022-08-23T20:32:31.179Z,24.44
2022-08-23T20:35:00.463Z,24.30
2022-08-23T20:37:29.124Z,24.14
2022-08-23T20:39:57.584Z,24.12
2022-08-23T20:42:26.308Z,24.12
2022-08-23T20:44:55.260Z,24.18
2022-08-23T20:47:25.287Z,24.15
2022-08-23T20:49:53.737Z,24.16
2022-08-23T20:52:22.753Z,24.14
2022-08-23T20:54:52.108Z,24.13
2022-08-23T20:57:20.813Z,24.14
2022-08-23T20:59:49.192Z,24.12
2022-08-23T21:02:17.434Z,24.15
2022-08-23T21:04:46.694Z,24.17
2022-08-23T21:07:15.725Z,24.15
2022-08-23T21:09:43.673Z,24.15
2022-08-23T21:12:11.617Z,24.15
2022-08-23T21:14:39.889Z,24.10
2022-08-23T21:17:07.859Z,23.90
2022-08-23T21:19:35.733Z,23.80
2022-08-23T21:22:05.571Z,23.32
2022-08-23T21:24:33.498Z,22.99
2022-08-23T21:27:02.439Z,22.87
2022-08-23T21:29:37.794Z,22.85
2022-08-23T21:32:06.813Z,23.02
2022-08-23T21:34:35.802Z,23.06
2022-08-23T21:37:05.121Z,23.09
2022-08-23T21:39:33.187Z,23.14
2022-08-23T21:42:01.391Z,23.13
2022-08-23T21:44:29.543Z,23.15
2022-08-23T21:46:57.946Z,23.17
2022-08-23T21:49:26.097Z,23.21
2022-08-23T21:51:54.325Z,23.12
2022-08-23T21:54:24.498Z,23.07
2022-08-23T21:56:54.884Z,23.09
2022-08-23T21:59:23.300Z,23.06
2022-08-23T22:01:51.765Z,22.83
2022-08-23T22:04:19.730Z,22.84
2022-08-23T22:06:48.518Z,22.82
2022-08-23T22:09:19.295Z,22.79
2022-08-23T22:11:51.439Z,22.85
2022-08-23T22:14:26.519Z,22.62
2022-08-23T22:17:01.019Z,22.48
2022-08-23T22:19:29.471Z,22.44
2022-08-23T22:22:00.370Z,22.09
2022-08-23T22:24:28.384Z,21.95
2022-08-23T22:26:58.352Z,21.97
2022-08-23T22:29:26.564Z,22.14
2022-08-23T22:31:54.559Z,22.28
2022-08-23T22:34:22.749Z,21.90
2022-08-23T22:36:52.406Z,21.77
2022-08-23T22:39:21.296Z,21.54
2022-08-23T22:41:49.570Z,21.60
2022-08-23T22:44:19.625Z,21.66
2022-08-23T22:46:47.785Z,21.38
2022-08-23T22:49:15.806Z,21.22
2022-08-23T22:51:43.835Z,21.12
2022-08-23T22:54:14.798Z,20.75
2022-08-23T22:56:48.001Z,20.55
2022-08-23T22:59:17.512Z,20.67
2022-08-23T23:01:49.733Z,20.93
2022-08-23T23:04:20.672Z,21.31
2022-08-23T23:06:49.213Z,21.51
2022-08-23T23:09:19.896Z,21.59
2022-08-23T23:11:48.541Z,21.62
2022-08-23T23:14:21.097Z,21.60
2022-08-23T23:16:50.914Z,21.52
2022-08-23T23:19:36.529Z,21.34
2022-08-23T23:22:05.857Z,20.88
2022-08-23T23:24:37.228Z,20.60
2022-08-23T23:27:06.285Z,20.33
2022-08-23T23:29:35.327Z,20.04
2022-08-23T23:32:05.619Z,19.77
2022-08-23T23:34:34.613Z,19.70
2022-08-23T23:37:02.555Z,19.63
2022-08-23T23:39:30.420Z,19.81
2022-08-23T23:41:58.542Z,20.02
2022-08-23T23:44:31.500Z,20.28
2022-08-23T23:47:00.577Z,20.39
2022-08-23T23:49:37.529Z,20.67
2022-08-23T23:52:07.212Z,20.80
2022-08-23T23:54:40.648Z,20.93
2022-08-23T23:57:09.107Z,20.88
2022-08-23T23:59:37.145Z,20.82
